Hauptseite
METAR-TAF:

METAR-TAF

Flughäfen :

Bordj Badji Mokhtar, Algerien

Breite: 21-22-30N, Länge: 000-55-26E, Höhe: 396 m

Beobachtung

Neuester Wetterbericht von vor 2 Stunden und 47 Minuten, um 18:00 UTC
Wind 1 kt aus Nord
Temperatur 45°C
Luftdruck 1005 hPa
Sichtweite: 8000 m

METAR: DATM 121800Z 36001KT 8000 NSC 45/// Q1005

Zeit: 21:47 (20:47 UTC)

Prognose

Neuester Wetterbericht von vor 3 Stunden und 47 Minuten, um 17:00 UTC
Gültige Prognose vom 12 um 18 UTC bis 13 um 03 UTC
Wind 10 kt aus Nordost
Sichtweite: 8000 m
Übergehend zu
vom 12 um 20 UTC bis 12 um 22 UTC
Wind 2 kt aus unterschiedlichen Richtungen
Wahrscheinlichkeit 30% :
Zeitweise
vom 12 um 20 UTC bis 13 um 03 UTC
Sichtweite: 3000 m
Leicht bewölkt in der Höhe von 4000 ft, Kumulonimbus.
trockener Dunst,

TAF: DATM 121700Z 1218/1303 04010KT 8000 NSC BECMG 1220/1222 VRB02KT PROB30 TEMPO 1220/1303 3000 HZ FEW040CB

Wetterbeobachtungen und Prognosen von mehr als 4000 Flughäfen (METAR und TAF Bericht).

Die verfügbaren Stationen werden durch gelbe und rote Markierungen auf der Karte dargestellt.

Führen Sie die Maus auf sie, um den Namen der Station zu sehen.

Darauf klicken, um die Beobachtung von Wetterbeobachtungen und Prognosen zu sehen.

Um die Karte zu ändern : klicken Sie auf den grünen Tasten mit einem schwarzen Kreuz Zum Vergrößern, auf den grünen Button mit einem Gedankenstrich zu verkleinern, oder auf die grünen Pfeile für benachbarte Karten.


METAR-TAF: